sensor_id;sensor_type;location;lat;lon;timestamp;pressure;altitude;pressure_sealevel;temperature;humidity
33265;BME280;31404;53.974;-1.086;2023-03-20T00:00:40;101428.36;;;9.39;81.80
33265;BME280;31404;53.974;-1.086;2023-03-20T00:05:35;101430.32;;;8.98;84.49
33265;BME280;31404;53.974;-1.086;2023-03-20T00:10:39;101433.40;;;7.93;89.38
33265;BME280;31404;53.974;-1.086;2023-03-20T00:15:38;101430.64;;;7.61;89.35
33265;BME280;31404;53.974;-1.086;2023-03-20T00:20:34;101430.92;;;7.86;89.19
33265;BME280;31404;53.974;-1.086;2023-03-20T00:25:37;101425.43;;;7.90;89.07
33265;BME280;31404;53.974;-1.086;2023-03-20T00:30:38;101405.37;;;9.85;82.59
33265;BME280;31404;53.974;-1.086;2023-03-20T00:35:35;101405.09;;;8.21;88.94
33265;BME280;31404;53.974;-1.086;2023-03-20T00:40:37;101390.22;;;8.32;90.99
33265;BME280;31404;53.974;-1.086;2023-03-20T00:45:39;101386.60;;;8.99;87.03
33265;BME280;31404;53.974;-1.086;2023-03-20T00:50:38;101392.35;;;7.84;91.83
33265;BME280;31404;53.974;-1.086;2023-03-20T00:55:38;101391.40;;;7.68;93.86
33265;BME280;31404;53.974;-1.086;2023-03-20T01:00:39;101375.89;;;8.87;89.40
33265;BME280;31404;53.974;-1.086;2023-03-20T01:05:36;101376.90;;;9.41;86.07
33265;BME280;31404;53.974;-1.086;2023-03-20T01:10:37;101369.41;;;9.14;86.55
33265;BME280;31404;53.974;-1.086;2023-03-20T01:15:36;101351.96;;;8.50;87.90
33265;BME280;31404;53.974;-1.086;2023-03-20T01:20:38;101338.20;;;7.84;93.19
33265;BME280;31404;53.974;-1.086;2023-03-20T01:25:39;101344.52;;;7.47;92.68
33265;BME280;31404;53.974;-1.086;2023-03-20T01:30:37;101343.84;;;6.96;96.85
33265;BME280;31404;53.974;-1.086;2023-03-20T01:35:37;101335.05;;;7.05;97.43
33265;BME280;31404;53.974;-1.086;2023-03-20T01:45:37;101335.55;;;7.68;93.31
33265;BME280;31404;53.974;-1.086;2023-03-20T01:50:37;101333.35;;;6.92;95.55
33265;BME280;31404;53.974;-1.086;2023-03-20T01:55:38;101327.93;;;7.62;92.19
33265;BME280;31404;53.974;-1.086;2023-03-20T02:00:36;101320.68;;;8.32;89.38
33265;BME280;31404;53.974;-1.086;2023-03-20T02:05:37;101312.81;;;7.94;90.96
33265;BME280;31404;53.974;-1.086;2023-03-20T02:10:35;101319.69;;;7.55;90.92
33265;BME280;31404;53.974;-1.086;2023-03-20T02:50:39;101279.25;;;8.31;86.86
33265;BME280;31404;53.974;-1.086;2023-03-20T02:55:40;101268.40;;;8.62;87.22
33265;BME280;31404;53.974;-1.086;2023-03-20T03:00:38;101268.23;;;8.61;88.34
33265;BME280;31404;53.974;-1.086;2023-03-20T03:05:41;101267.90;;;7.86;92.25
33265;BME280;31404;53.974;-1.086;2023-03-20T03:15:40;101252.51;;;7.69;92.23
33265;BME280;31404;53.974;-1.086;2023-03-20T03:20:38;101243.17;;;8.38;89.98
33265;BME280;31404;53.974;-1.086;2023-03-20T03:25:39;101238.45;;;7.91;92.94
33265;BME280;31404;53.974;-1.086;2023-03-20T03:30:37;101223.47;;;8.76;89.28
33265;BME280;31404;53.974;-1.086;2023-03-20T03:35:39;101224.09;;;8.16;91.09
33265;BME280;31404;53.974;-1.086;2023-03-20T03:45:41;101217.94;;;8.21;92.05
33265;BME280;31404;53.974;-1.086;2023-03-20T03:50:39;101226.94;;;7.41;96.46
33265;BME280;31404;53.974;-1.086;2023-03-20T03:55:40;101219.25;;;7.23;96.16
33265;BME280;31404;53.974;-1.086;2023-03-20T04:00:34;101210.88;;;7.57;94.83
33265;BME280;31404;53.974;-1.086;2023-03-20T04:10:37;101207.30;;;7.84;94.55
33265;BME280;31404;53.974;-1.086;2023-03-20T04:15:38;101202.37;;;7.45;98.12
33265;BME280;31404;53.974;-1.086;2023-03-20T04:25:38;101191.48;;;8.57;93.54
33265;BME280;31404;53.974;-1.086;2023-03-20T04:30:37;101198.19;;;8.03;96.66
33265;BME280;31404;53.974;-1.086;2023-03-20T04:35:34;101204.30;;;7.62;97.43
33265;BME280;31404;53.974;-1.086;2023-03-20T04:40:37;101197.58;;;7.33;97.08
33265;BME280;31404;53.974;-1.086;2023-03-20T04:45:36;101195.29;;;9.18;90.89
33265;BME280;31404;53.974;-1.086;2023-03-20T04:50:37;101192.29;;;8.32;92.35
33265;BME280;31404;53.974;-1.086;2023-03-20T04:55:36;101187.07;;;8.94;91.58
33265;BME280;31404;53.974;-1.086;2023-03-20T05:00:36;101177.69;;;9.53;88.42
33265;BME280;31404;53.974;-1.086;2023-03-20T05:05:38;101173.46;;;8.61;92.49
33265;BME280;31404;53.974;-1.086;2023-03-20T05:10:37;101180.00;;;8.64;90.14
33265;BME280;31404;53.974;-1.086;2023-03-20T05:15:37;101188.16;;;7.11;100.00
33265;BME280;31404;53.974;-1.086;2023-03-20T05:20:38;101195.73;;;7.48;99.02
33265;BME280;31404;53.974;-1.086;2023-03-20T05:25:29;101193.57;;;9.62;89.77
33265;BME280;31404;53.974;-1.086;2023-03-20T05:30:34;101198.96;;;8.56;90.88
33265;BME280;31404;53.974;-1.086;2023-03-20T05:35:34;101199.39;;;9.11;90.84
33265;BME280;31404;53.974;-1.086;2023-03-20T05:40:37;101194.74;;;8.56;91.47
33265;BME280;31404;53.974;-1.086;2023-03-20T05:45:37;101194.70;;;6.99;100.00
33265;BME280;31404;53.974;-1.086;2023-03-20T05:50:35;101194.04;;;7.34;100.00
33265;BME280;31404;53.974;-1.086;2023-03-20T05:55:37;101192.03;;;7.40;100.00
33265;BME280;31404;53.974;-1.086;2023-03-20T06:00:38;101196.27;;;8.02;98.32
33265;BME280;31404;53.974;-1.086;2023-03-20T06:05:36;101194.61;;;9.66;89.62
33265;BME280;31404;53.974;-1.086;2023-03-20T06:10:36;101192.25;;;9.87;85.40
33265;BME280;31404;53.974;-1.086;2023-03-20T06:15:36;101188.50;;;10.59;83.42
33265;BME280;31404;53.974;-1.086;2023-03-20T06:20:36;101189.18;;;10.61;83.52
33265;BME280;31404;53.974;-1.086;2023-03-20T06:25:42;101196.66;;;10.07;86.00
33265;BME280;31404;53.974;-1.086;2023-03-20T06:30:36;101205.72;;;8.75;92.30
33265;BME280;31404;53.974;-1.086;2023-03-20T06:35:46;101205.03;;;7.60;98.70
33265;BME280;31404;53.974;-1.086;2023-03-20T06:40:36;101201.54;;;8.53;97.98
33265;BME280;31404;53.974;-1.086;2023-03-20T06:45:34;101206.90;;;7.55;100.00
33265;BME280;31404;53.974;-1.086;2023-03-20T06:50:36;101209.14;;;6.54;100.00
33265;BME280;31404;53.974;-1.086;2023-03-20T07:00:37;101205.17;;;7.70;100.00
33265;BME280;31404;53.974;-1.086;2023-03-20T07:05:38;101210.31;;;7.78;100.00
33265;BME280;31404;53.974;-1.086;2023-03-20T07:10:36;101214.64;;;6.56;100.00
33265;BME280;31404;53.974;-1.086;2023-03-20T07:15:36;101223.61;;;7.95;100.00
33265;BME280;31404;53.974;-1.086;2023-03-20T07:20:35;101224.30;;;6.91;100.00
33265;BME280;31404;53.974;-1.086;2023-03-20T07:25:35;101233.27;;;7.34;100.00
33265;BME280;31404;53.974;-1.086;2023-03-20T07:30:36;101231.26;;;7.06;100.00
33265;BME280;31404;53.974;-1.086;2023-03-20T07:35:37;101231.42;;;7.24;100.00
33265;BME280;31404;53.974;-1.086;2023-03-20T07:40:37;101225.21;;;8.34;100.00
33265;BME280;31404;53.974;-1.086;2023-03-20T07:45:36;101225.85;;;7.02;100.00
33265;BME280;31404;53.974;-1.086;2023-03-20T07:50:36;101221.75;;;7.49;100.00
33265;BME280;31404;53.974;-1.086;2023-03-20T07:55:38;101222.84;;;6.35;100.00
33265;BME280;31404;53.974;-1.086;2023-03-20T08:00:34;101223.92;;;6.34;100.00
33265;BME280;31404;53.974;-1.086;2023-03-20T08:05:36;101230.59;;;5.78;100.00
33265;BME280;31404;53.974;-1.086;2023-03-20T08:10:37;101230.06;;;7.15;100.00
33265;BME280;31404;53.974;-1.086;2023-03-20T08:15:37;101231.83;;;7.72;100.00
33265;BME280;31404;53.974;-1.086;2023-03-20T08:20:36;101228.78;;;9.32;99.69
33265;BME280;31404;53.974;-1.086;2023-03-20T08:25:38;101230.95;;;8.99;100.00
33265;BME280;31404;53.974;-1.086;2023-03-20T08:30:35;101226.96;;;8.31;100.00
33265;BME280;31404;53.974;-1.086;2023-03-20T08:35:37;101233.96;;;7.02;100.00
33265;BME280;31404;53.974;-1.086;2023-03-20T08:40:34;101230.92;;;8.50;100.00
33265;BME280;31404;53.974;-1.086;2023-03-20T08:45:34;101229.69;;;9.27;100.00
33265;BME280;31404;53.974;-1.086;2023-03-20T08:50:36;101224.83;;;9.56;100.00
33265;BME280;31404;53.974;-1.086;2023-03-20T08:55:36;101230.22;;;9.40;100.00
33265;BME280;31404;53.974;-1.086;2023-03-20T09:00:35;101230.47;;;8.51;100.00
33265;BME280;31404;53.974;-1.086;2023-03-20T09:05:36;101233.31;;;8.15;100.00
33265;BME280;31404;53.974;-1.086;2023-03-20T09:10:35;101237.84;;;9.96;98.13
33265;BME280;31404;53.974;-1.086;2023-03-20T09:15:37;101239.01;;;10.41;94.44
33265;BME280;31404;53.974;-1.086;2023-03-20T09:20:36;101245.41;;;10.51;95.97
33265;BME280;31404;53.974;-1.086;2023-03-20T09:30:36;101247.06;;;10.93;93.71
33265;BME280;31404;53.974;-1.086;2023-03-20T09:35:38;101246.30;;;10.45;97.21
33265;BME280;31404;53.974;-1.086;2023-03-20T09:50:37;101255.41;;;11.07;94.10
33265;BME280;31404;53.974;-1.086;2023-03-20T09:55:38;101260.51;;;9.68;100.00
33265;BME280;31404;53.974;-1.086;2023-03-20T10:00:36;101265.10;;;11.42;92.77
33265;BME280;31404;53.974;-1.086;2023-03-20T10:05:44;101264.54;;;10.39;100.00
33265;BME280;31404;53.974;-1.086;2023-03-20T10:40:38;101265.47;;;10.22;100.00
33265;BME280;31404;53.974;-1.086;2023-03-20T10:45:39;101259.83;;;10.86;100.00
33265;BME280;31404;53.974;-1.086;2023-03-20T10:55:39;101257.49;;;10.43;100.00
33265;BME280;31404;53.974;-1.086;2023-03-20T11:00:36;101257.69;;;10.89;100.00
33265;BME280;31404;53.974;-1.086;2023-03-20T11:05:35;101259.93;;;10.76;100.00
33265;BME280;31404;53.974;-1.086;2023-03-20T11:10:39;101260.14;;;10.90;100.00
33265;BME280;31404;53.974;-1.086;2023-03-20T11:15:36;101264.55;;;11.66;97.35
33265;BME280;31404;53.974;-1.086;2023-03-20T11:20:43;101265.17;;;10.03;100.00
33265;BME280;31404;53.974;-1.086;2023-03-20T11:25:37;101257.28;;;10.46;100.00
33265;BME280;31404;53.974;-1.086;2023-03-20T11:30:39;101259.04;;;10.50;100.00
33265;BME280;31404;53.974;-1.086;2023-03-20T11:35:37;101264.22;;;10.74;100.00
33265;BME280;31404;53.974;-1.086;2023-03-20T11:40:36;101251.93;;;10.84;100.00
33265;BME280;31404;53.974;-1.086;2023-03-20T11:45:54;101249.61;;;9.99;100.00
33265;BME280;31404;53.974;-1.086;2023-03-20T11:50:40;101243.87;;;11.19;100.00
33265;BME280;31404;53.974;-1.086;2023-03-20T11:55:37;101237.44;;;11.78;100.00
33265;BME280;31404;53.974;-1.086;2023-03-20T12:00:40;101233.23;;;13.48;93.59
33265;BME280;31404;53.974;-1.086;2023-03-20T12:05:37;101245.74;;;10.86;100.00
33265;BME280;31404;53.974;-1.086;2023-03-20T12:10:38;101239.36;;;12.14;100.00
33265;BME280;31404;53.974;-1.086;2023-03-20T12:25:42;101228.68;;;12.69;97.03
33265;BME280;31404;53.974;-1.086;2023-03-20T12:45:38;101207.07;;;14.39;87.36
33265;BME280;31404;53.974;-1.086;2023-03-20T12:50:39;101202.28;;;12.52;97.87
33265;BME280;31404;53.974;-1.086;2023-03-20T13:10:38;101209.68;;;11.79;100.00
33265;BME280;31404;53.974;-1.086;2023-03-20T13:40:39;101198.29;;;12.85;100.00
33265;BME280;31404;53.974;-1.086;2023-03-20T13:45:38;101187.99;;;10.97;100.00
33265;BME280;31404;53.974;-1.086;2023-03-20T14:00:38;101173.14;;;12.77;100.00
33265;BME280;31404;53.974;-1.086;2023-03-20T14:05:39;101173.83;;;12.80;98.89
33265;BME280;31404;53.974;-1.086;2023-03-20T14:10:37;101160.38;;;14.08;91.41
33265;BME280;31404;53.974;-1.086;2023-03-20T14:15:38;101156.23;;;13.96;94.94
33265;BME280;31404;53.974;-1.086;2023-03-20T14:20:38;101161.83;;;13.20;97.61
33265;BME280;31404;53.974;-1.086;2023-03-20T14:25:41;101159.37;;;12.90;97.11
33265;BME280;31404;53.974;-1.086;2023-03-20T14:30:40;101154.25;;;13.57;96.01
33265;BME280;31404;53.974;-1.086;2023-03-20T14:35:37;101155.27;;;13.54;95.36
33265;BME280;31404;53.974;-1.086;2023-03-20T14:40:39;101157.42;;;12.13;100.00
33265;BME280;31404;53.974;-1.086;2023-03-20T14:45:40;101151.11;;;13.65;95.20
33265;BME280;31404;53.974;-1.086;2023-03-20T14:50:38;101148.18;;;14.65;90.73
33265;BME280;31404;53.974;-1.086;2023-03-20T15:05:37;101150.74;;;15.43;84.25
33265;BME280;31404;53.974;-1.086;2023-03-20T15:15:36;101143.66;;;16.25;79.68
33265;BME280;31404;53.974;-1.086;2023-03-20T15:20:36;101134.68;;;16.25;79.61
33265;BME280;31404;53.974;-1.086;2023-03-20T15:25:38;101129.26;;;15.92;83.27
33265;BME280;31404;53.974;-1.086;2023-03-20T15:30:38;101125.24;;;16.55;78.57
33265;BME280;31404;53.974;-1.086;2023-03-20T15:35:37;101113.11;;;17.14;76.13
33265;BME280;31404;53.974;-1.086;2023-03-20T15:40:39;101110.62;;;17.42;75.72
33265;BME280;31404;53.974;-1.086;2023-03-20T15:45:39;101117.12;;;16.91;77.17
33265;BME280;31404;53.974;-1.086;2023-03-20T15:50:38;101115.05;;;15.92;79.66
33265;BME280;31404;53.974;-1.086;2023-03-20T15:55:37;101107.90;;;15.89;79.24
33265;BME280;31404;53.974;-1.086;2023-03-20T16:05:37;101094.99;;;16.62;76.82
33265;BME280;31404;53.974;-1.086;2023-03-20T16:15:36;101088.53;;;15.98;76.93
33265;BME280;31404;53.974;-1.086;2023-03-20T16:20:38;101095.79;;;15.16;79.71
33265;BME280;31404;53.974;-1.086;2023-03-20T16:25:36;101095.59;;;14.65;81.82
33265;BME280;31404;53.974;-1.086;2023-03-20T16:30:37;101084.24;;;15.96;77.03
33265;BME280;31404;53.974;-1.086;2023-03-20T16:35:38;101087.50;;;16.37;75.25
33265;BME280;31404;53.974;-1.086;2023-03-20T16:40:36;101085.24;;;16.05;75.24
33265;BME280;31404;53.974;-1.086;2023-03-20T16:50:37;101077.52;;;16.66;73.71
33265;BME280;31404;53.974;-1.086;2023-03-20T17:10:36;101064.76;;;16.78;72.00
33265;BME280;31404;53.974;-1.086;2023-03-20T17:15:37;101069.39;;;16.45;72.98
33265;BME280;31404;53.974;-1.086;2023-03-20T17:20:35;101070.42;;;14.28;81.85
33265;BME280;31404;53.974;-1.086;2023-03-20T17:25:36;101065.28;;;15.94;76.13
33265;BME280;31404;53.974;-1.086;2023-03-20T17:30:36;101069.45;;;16.73;72.55
33265;BME280;31404;53.974;-1.086;2023-03-20T17:35:35;101063.02;;;16.51;73.13
33265;BME280;31404;53.974;-1.086;2023-03-20T17:40:36;101060.49;;;13.69;82.85
33265;BME280;31404;53.974;-1.086;2023-03-20T17:45:35;101060.77;;;12.07;93.73
33265;BME280;31404;53.974;-1.086;2023-03-20T17:50:34;101056.39;;;13.55;87.99
33265;BME280;31404;53.974;-1.086;2023-03-20T17:55:36;101053.83;;;13.56;86.63
33265;BME280;31404;53.974;-1.086;2023-03-20T18:00:36;101054.61;;;12.88;91.68
33265;BME280;31404;53.974;-1.086;2023-03-20T18:05:35;101046.71;;;13.14;90.67
33265;BME280;31404;53.974;-1.086;2023-03-20T18:10:35;101036.64;;;13.01;91.54
33265;BME280;31404;53.974;-1.086;2023-03-20T18:15:36;101035.56;;;14.05;87.54
33265;BME280;31404;53.974;-1.086;2023-03-20T18:20:38;101036.46;;;13.83;87.53
33265;BME280;31404;53.974;-1.086;2023-03-20T18:25:35;101036.84;;;13.43;88.64
33265;BME280;31404;53.974;-1.086;2023-03-20T18:30:38;101035.26;;;12.09;97.53
33265;BME280;31404;53.974;-1.086;2023-03-20T18:35:36;101035.51;;;13.33;89.13
33265;BME280;31404;53.974;-1.086;2023-03-20T18:40:37;101036.16;;;13.34;90.17
33265;BME280;31404;53.974;-1.086;2023-03-20T18:45:36;101037.67;;;13.14;92.31
33265;BME280;31404;53.974;-1.086;2023-03-20T18:50:38;101039.09;;;14.01;87.26
33265;BME280;31404;53.974;-1.086;2023-03-20T18:55:36;101035.02;;;12.32;95.44
33265;BME280;31404;53.974;-1.086;2023-03-20T19:00:37;101023.03;;;14.45;85.07
33265;BME280;31404;53.974;-1.086;2023-03-20T19:05:37;101012.00;;;15.49;79.85
33265;BME280;31404;53.974;-1.086;2023-03-20T19:10:38;101014.29;;;14.50;83.09
33265;BME280;31404;53.974;-1.086;2023-03-20T19:15:36;101016.20;;;12.54;93.49
33265;BME280;31404;53.974;-1.086;2023-03-20T19:20:38;101013.50;;;12.39;96.59
33265;BME280;31404;53.974;-1.086;2023-03-20T19:25:37;101012.38;;;13.80;89.57
33265;BME280;31404;53.974;-1.086;2023-03-20T19:30:37;101007.88;;;12.39;96.82
33265;BME280;31404;53.974;-1.086;2023-03-20T19:35:36;101004.09;;;12.64;94.81
33265;BME280;31404;53.974;-1.086;2023-03-20T19:40:38;101001.72;;;12.01;97.77
33265;BME280;31404;53.974;-1.086;2023-03-20T19:45:39;100992.85;;;12.75;94.39
33265;BME280;31404;53.974;-1.086;2023-03-20T19:50:35;100993.47;;;12.85;94.36
33265;BME280;31404;53.974;-1.086;2023-03-20T19:55:37;100991.28;;;11.70;98.53
33265;BME280;31404;53.974;-1.086;2023-03-20T20:00:36;100980.61;;;13.49;89.44
33265;BME280;31404;53.974;-1.086;2023-03-20T20:05:37;100982.05;;;13.37;89.57
33265;BME280;31404;53.974;-1.086;2023-03-20T20:10:38;100977.79;;;11.75;95.10
33265;BME280;31404;53.974;-1.086;2023-03-20T20:15:35;100971.87;;;12.98;91.40
33265;BME280;31404;53.974;-1.086;2023-03-20T20:20:35;100969.50;;;12.87;93.11
33265;BME280;31404;53.974;-1.086;2023-03-20T20:25:36;100973.08;;;11.94;96.82
33265;BME280;31404;53.974;-1.086;2023-03-20T20:30:36;100967.61;;;11.89;98.44
33265;BME280;31404;53.974;-1.086;2023-03-20T20:35:35;100966.81;;;12.51;95.05
33265;BME280;31404;53.974;-1.086;2023-03-20T20:40:38;100960.30;;;12.68;94.41
33265;BME280;31404;53.974;-1.086;2023-03-20T20:45:35;100956.96;;;13.50;91.11
33265;BME280;31404;53.974;-1.086;2023-03-20T20:50:35;100961.49;;;13.69;90.83
33265;BME280;31404;53.974;-1.086;2023-03-20T20:55:36;100956.49;;;13.34;92.28
33265;BME280;31404;53.974;-1.086;2023-03-20T21:00:35;100954.68;;;11.33;100.00
33265;BME280;31404;53.974;-1.086;2023-03-20T21:05:37;100949.45;;;12.49;100.00
33265;BME280;31404;53.974;-1.086;2023-03-20T21:10:37;100949.09;;;11.70;100.00
33265;BME280;31404;53.974;-1.086;2023-03-20T21:15:37;100946.34;;;12.03;100.00
33265;BME280;31404;53.974;-1.086;2023-03-20T21:20:36;100938.54;;;11.00;100.00
33265;BME280;31404;53.974;-1.086;2023-03-20T21:25:36;100934.74;;;10.81;100.00
33265;BME280;31404;53.974;-1.086;2023-03-20T21:30:35;100932.98;;;11.21;100.00
33265;BME280;31404;53.974;-1.086;2023-03-20T21:35:36;100929.73;;;10.95;100.00
33265;BME280;31404;53.974;-1.086;2023-03-20T21:40:37;100927.05;;;10.70;100.00
33265;BME280;31404;53.974;-1.086;2023-03-20T21:45:36;100924.50;;;10.44;100.00
33265;BME280;31404;53.974;-1.086;2023-03-20T21:50:36;100916.98;;;11.12;100.00
33265;BME280;31404;53.974;-1.086;2023-03-20T21:55:36;100915.56;;;10.41;100.00
33265;BME280;31404;53.974;-1.086;2023-03-20T22:00:36;100923.24;;;10.20;100.00
33265;BME280;31404;53.974;-1.086;2023-03-20T22:05:37;100916.98;;;11.07;100.00
33265;BME280;31404;53.974;-1.086;2023-03-20T22:10:37;100912.76;;;11.17;100.00
33265;BME280;31404;53.974;-1.086;2023-03-20T22:15:36;100907.41;;;10.29;100.00
33265;BME280;31404;53.974;-1.086;2023-03-20T22:20:39;100906.48;;;11.42;100.00
33265;BME280;31404;53.974;-1.086;2023-03-20T22:25:35;100896.99;;;10.81;100.00
33265;BME280;31404;53.974;-1.086;2023-03-20T22:30:36;100889.49;;;10.24;100.00
33265;BME280;31404;53.974;-1.086;2023-03-20T22:35:34;100879.99;;;10.70;100.00
33265;BME280;31404;53.974;-1.086;2023-03-20T22:40:37;100877.97;;;9.79;100.00
33265;BME280;31404;53.974;-1.086;2023-03-20T22:45:37;100874.54;;;9.10;100.00
33265;BME280;31404;53.974;-1.086;2023-03-20T22:50:35;100867.60;;;9.92;100.00
33265;BME280;31404;53.974;-1.086;2023-03-20T22:55:40;100867.20;;;9.81;100.00
33265;BME280;31404;53.974;-1.086;2023-03-20T23:00:37;100862.92;;;9.82;100.00
33265;BME280;31404;53.974;-1.086;2023-03-20T23:05:35;100858.31;;;9.75;100.00
33265;BME280;31404;53.974;-1.086;2023-03-20T23:15:35;100834.06;;;10.14;100.00
33265;BME280;31404;53.974;-1.086;2023-03-20T23:25:35;100820.14;;;9.06;100.00
33265;BME280;31404;53.974;-1.086;2023-03-20T23:30:35;100801.11;;;10.13;100.00
33265;BME280;31404;53.974;-1.086;2023-03-20T23:35:36;100805.18;;;9.55;100.00
33265;BME280;31404;53.974;-1.086;2023-03-20T23:40:36;100796.84;;;9.09;100.00
33265;BME280;31404;53.974;-1.086;2023-03-20T23:45:37;100793.61;;;9.22;100.00
33265;BME280;31404;53.974;-1.086;2023-03-20T23:50:35;100788.73;;;8.32;100.00
33265;BME280;31404;53.974;-1.086;2023-03-20T23:55:32;100774.21;;;9.97;100.00
